createdAt,value
2023-01-09T00:00:43.772Z,9.07
2023-01-09T00:01:44.222Z,9.88
2023-01-09T00:02:41.369Z,9.40
2023-01-09T00:03:38.083Z,8.23
2023-01-09T00:04:35.115Z,7.88
2023-01-09T00:05:31.715Z,8.57
2023-01-09T00:06:28.641Z,9.57
2023-01-09T00:07:25.289Z,10.60
2023-01-09T00:08:21.963Z,10.23
2023-01-09T00:09:18.604Z,8.80
2023-01-09T00:10:15.571Z,9.63
2023-01-09T00:11:12.217Z,9.30
2023-01-09T00:12:08.885Z,10.30
2023-01-09T00:13:05.578Z,9.77
2023-01-09T00:14:02.322Z,9.57
2023-01-09T00:14:59.066Z,10.00
2023-01-09T00:15:55.723Z,10.18
2023-01-09T00:16:55.434Z,10.70
2023-01-09T00:17:52.171Z,11.45
2023-01-09T00:18:48.830Z,9.57
2023-01-09T00:19:45.478Z,11.25
2023-01-09T00:20:42.084Z,11.13
2023-01-09T00:21:39.050Z,12.20
2023-01-09T00:22:37.197Z,11.40
2023-01-09T00:23:34.080Z,12.13
2023-01-09T00:24:30.696Z,10.73
2023-01-09T00:25:27.374Z,9.52
2023-01-09T00:26:24.050Z,9.43
2023-01-09T00:27:20.743Z,10.57
2023-01-09T00:28:17.472Z,9.00
2023-01-09T00:29:14.320Z,9.90
2023-01-09T00:30:11.797Z,10.77
2023-01-09T00:31:09.209Z,11.77
2023-01-09T00:32:10.135Z,13.20
2023-01-09T00:33:06.808Z,11.80
2023-01-09T00:34:07.285Z,12.18
2023-01-09T00:35:04.258Z,12.05
2023-01-09T00:36:01.162Z,11.95
2023-01-09T00:36:57.838Z,14.30
2023-01-09T00:37:55.113Z,14.85
2023-01-09T00:38:52.097Z,11.48
2023-01-09T00:39:48.759Z,12.88
2023-01-09T00:40:45.521Z,13.20
2023-01-09T00:41:47.019Z,12.23
2023-01-09T00:42:48.960Z,13.05
2023-01-09T00:43:50.212Z,13.52
2023-01-09T00:44:52.702Z,14.02
2023-01-09T00:46:55.357Z,13.93
2023-01-09T00:47:52.813Z,12.27
2023-01-09T00:48:49.989Z,14.18
2023-01-09T00:49:47.995Z,15.20
2023-01-09T00:50:44.747Z,14.02
2023-01-09T00:51:42.157Z,14.52
2023-01-09T00:52:40.439Z,13.82
2023-01-09T00:53:40.288Z,15.13
2023-01-09T00:54:38.075Z,13.18
2023-01-09T00:55:37.547Z,11.68
2023-01-09T00:56:35.937Z,11.70
2023-01-09T00:57:33.083Z,10.82
2023-01-09T00:58:30.033Z,12.15
2023-01-09T00:59:27.630Z,13.90
2023-01-09T01:00:24.496Z,14.75
2023-01-09T01:01:21.658Z,13.65
2023-01-09T01:02:18.516Z,12.75
2023-01-09T01:03:15.728Z,14.38
2023-01-09T01:04:30.663Z,14.23
2023-01-09T01:05:46.149Z,12.23
2023-01-09T01:07:01.192Z,12.07
2023-01-09T01:07:57.863Z,11.15
2023-01-09T01:08:58.253Z,11.10
2023-01-09T01:09:54.835Z,9.63
2023-01-09T01:10:51.428Z,12.52
2023-01-09T01:11:48.042Z,10.90
2023-01-09T01:12:44.972Z,13.65
2023-01-09T01:13:42.105Z,14.35
2023-01-09T01:14:39.040Z,12.43
2023-01-09T01:15:39.244Z,10.73
2023-01-09T01:16:35.947Z,12.23
2023-01-09T01:17:37.380Z,13.38
2023-01-09T01:18:34.119Z,7.75
2023-01-09T01:19:31.250Z,10.88
2023-01-09T01:20:27.896Z,10.32
2023-01-09T01:21:24.664Z,11.55
2023-01-09T01:22:21.307Z,13.10
2023-01-09T01:23:17.969Z,10.60
2023-01-09T01:24:18.222Z,13.82
2023-01-09T01:25:17.266Z,14.05
2023-01-09T01:26:16.167Z,12.00
2023-01-09T01:27:12.933Z,14.50
2023-01-09T01:28:10.539Z,11.73
2023-01-09T01:29:07.248Z,10.02
2023-01-09T01:30:04.896Z,13.70
2023-01-09T01:31:02.291Z,14.40
2023-01-09T01:31:59.030Z,14.10
2023-01-09T01:32:55.695Z,12.55
2023-01-09T01:33:52.406Z,13.10
2023-01-09T01:34:49.045Z,10.00
2023-01-09T01:35:45.690Z,11.50
2023-01-09T01:36:42.357Z,13.82
2023-01-09T01:37:40.144Z,14.15
2023-01-09T01:38:36.876Z,15.27
2023-01-09T01:39:33.600Z,15.45
2023-01-09T01:40:30.612Z,14.60
2023-01-09T01:41:30.797Z,14.02
2023-01-09T01:42:27.524Z,12.82
2023-01-09T01:43:24.225Z,14.00
2023-01-09T01:44:55.011Z,10.68
2023-01-09T01:45:51.688Z,10.27
2023-01-09T01:46:48.391Z,12.85
2023-01-09T01:47:54.022Z,14.00
2023-01-09T01:48:57.764Z,14.05
2023-01-09T01:49:55.228Z,15.65
2023-01-09T01:50:56.961Z,16.10
2023-01-09T01:51:54.235Z,17.25
2023-01-09T01:52:57.968Z,18.20
2023-01-09T01:53:59.461Z,17.58
2023-01-09T01:54:56.320Z,16.40
2023-01-09T01:56:14.844Z,15.68
2023-01-09T01:57:12.251Z,13.57
2023-01-09T01:58:12.313Z,14.32
2023-01-09T01:59:19.534Z,13.77
2023-01-09T02:00:19.036Z,15.35
2023-01-09T02:01:16.023Z,15.50
2023-01-09T02:02:12.805Z,13.88
2023-01-09T02:03:10.629Z,13.00
2023-01-09T02:04:07.575Z,16.50
2023-01-09T02:05:04.922Z,14.80
2023-01-09T02:06:04.512Z,14.48
2023-01-09T02:07:05.628Z,15.55
2023-01-09T02:08:02.302Z,13.88
2023-01-09T02:08:59.045Z,13.02
2023-01-09T02:09:57.295Z,12.35
2023-01-09T02:10:54.880Z,13.57
2023-01-09T02:11:56.461Z,16.20
2023-01-09T02:12:53.127Z,15.87
2023-01-09T02:13:49.908Z,14.25
2023-01-09T02:14:48.004Z,13.32
2023-01-09T02:15:57.002Z,13.80
2023-01-09T02:17:14.649Z,14.32
2023-01-09T02:18:35.195Z,12.80
2023-01-09T02:19:37.358Z,13.90
2023-01-09T02:20:40.893Z,14.25
2023-01-09T02:21:37.647Z,13.30
2023-01-09T02:23:12.899Z,12.77
2023-01-09T02:24:27.067Z,12.30
2023-01-09T02:25:42.293Z,13.45
2023-01-09T02:27:14.231Z,13.07
2023-01-09T02:28:53.348Z,16.35
2023-01-09T02:30:05.171Z,12.10
2023-01-09T02:31:15.550Z,12.13
2023-01-09T02:32:40.584Z,11.30
2023-01-09T02:33:54.270Z,11.50
2023-01-09T02:35:00.808Z,11.93
2023-01-09T02:36:22.329Z,12.18
2023-01-09T02:37:51.979Z,11.70
2023-01-09T02:38:55.499Z,11.32
2023-01-09T02:40:03.150Z,14.70
2023-01-09T02:41:42.513Z,13.30
2023-01-09T02:42:43.122Z,17.27
2023-01-09T02:43:41.226Z,16.20
2023-01-09T02:44:37.877Z,14.80
2023-01-09T02:45:34.702Z,12.82
2023-01-09T02:46:31.487Z,14.20
2023-01-09T02:47:29.431Z,14.30
2023-01-09T02:48:26.049Z,16.50
2023-01-09T02:49:22.724Z,16.25
2023-01-09T02:51:03.850Z,16.67
2023-01-09T02:52:20.297Z,18.00
2023-01-09T02:53:39.887Z,17.73
2023-01-09T02:54:54.534Z,16.95
2023-01-09T02:56:11.425Z,21.45
2023-01-09T02:57:13.764Z,20.73
2023-01-09T02:58:18.684Z,21.98
2023-01-09T02:59:48.300Z,21.67
2023-01-09T03:01:00.479Z,23.45
2023-01-09T03:02:15.931Z,18.05
2023-01-09T03:03:50.116Z,18.98
2023-01-09T03:06:10.816Z,18.90
2023-01-09T03:07:15.578Z,21.33
2023-01-09T03:08:25.632Z,18.90
2023-01-09T03:09:27.607Z,19.58
2023-01-09T03:11:01.899Z,19.83
2023-01-09T03:13:03.605Z,19.23
2023-01-09T03:14:07.224Z,21.83
2023-01-09T03:15:06.815Z,21.65
2023-01-09T03:16:07.995Z,21.45
2023-01-09T03:17:10.384Z,19.50
2023-01-09T03:18:10.645Z,23.23
2023-01-09T03:19:15.838Z,17.75
2023-01-09T03:20:15.956Z,18.73
2023-01-09T03:21:13.399Z,17.70
2023-01-09T03:22:10.159Z,17.83
2023-01-09T03:23:08.400Z,20.63
2023-01-09T03:24:05.605Z,21.95
2023-01-09T03:25:02.414Z,18.70
2023-01-09T03:25:59.181Z,19.77
2023-01-09T03:26:55.870Z,21.20
2023-01-09T03:27:57.053Z,22.17
2023-01-09T03:28:53.761Z,21.80
2023-01-09T03:29:51.355Z,20.83
2023-01-09T03:30:47.955Z,26.08
2023-01-09T03:31:44.667Z,27.55
2023-01-09T03:32:41.359Z,25.63
2023-01-09T03:33:38.256Z,25.05
2023-01-09T03:34:34.897Z,25.85
2023-01-09T03:35:31.535Z,27.35
2023-01-09T03:36:28.177Z,24.15
2023-01-09T03:37:24.831Z,26.20
2023-01-09T03:38:21.582Z,27.58
2023-01-09T03:39:18.256Z,26.10
2023-01-09T03:40:15.182Z,26.75
2023-01-09T03:41:11.952Z,24.15
2023-01-09T03:42:08.538Z,26.55
2023-01-09T03:43:05.238Z,27.73
2023-01-09T03:44:01.852Z,25.73
2023-01-09T03:44:58.519Z,25.00
2023-01-09T03:45:55.231Z,27.88
2023-01-09T03:46:51.984Z,21.98
2023-01-09T03:47:48.696Z,22.40
2023-01-09T03:48:45.364Z,26.23
2023-01-09T03:49:42.065Z,25.92
2023-01-09T03:50:38.783Z,27.02
2023-01-09T03:51:35.459Z,27.52
2023-01-09T03:52:32.598Z,26.20
2023-01-09T03:53:29.412Z,26.77
2023-01-09T03:54:26.169Z,26.33
2023-01-09T03:55:22.812Z,26.58
2023-01-09T03:56:19.562Z,23.80
2023-01-09T03:57:16.219Z,25.52
2023-01-09T03:58:13.911Z,26.50
2023-01-09T03:59:10.533Z,24.60
2023-01-09T04:00:08.609Z,27.75
2023-01-09T04:01:09.470Z,25.70
2023-01-09T04:02:06.627Z,23.02
2023-01-09T04:03:03.309Z,25.40
2023-01-09T04:04:00.082Z,25.80
2023-01-09T04:04:56.718Z,27.83
2023-01-09T04:05:53.394Z,25.48
2023-01-09T04:06:50.082Z,23.33
2023-01-09T04:07:46.817Z,23.27
2023-01-09T04:08:43.775Z,23.45
2023-01-09T04:09:40.361Z,21.48
2023-01-09T04:10:37.060Z,21.42
2023-01-09T04:11:33.792Z,22.77
2023-01-09T04:12:30.460Z,26.30
2023-01-09T04:13:27.124Z,24.98
2023-01-09T04:14:23.774Z,26.90
2023-01-09T04:15:20.567Z,23.35
2023-01-09T04:16:17.268Z,25.92
2023-01-09T04:17:14.003Z,30.10
2023-01-09T04:18:10.589Z,24.90
2023-01-09T04:19:07.283Z,27.30
2023-01-09T04:20:04.412Z,27.80
2023-01-09T04:21:01.060Z,29.25
2023-01-09T04:21:57.637Z,29.38
2023-01-09T04:22:54.401Z,31.40
2023-01-09T04:23:51.047Z,27.98
2023-01-09T04:24:47.692Z,31.45
2023-01-09T04:25:44.390Z,30.92
2023-01-09T04:26:41.074Z,30.75
2023-01-09T04:27:37.887Z,29.50
2023-01-09T04:28:34.561Z,29.77
2023-01-09T04:29:31.217Z,30.45
2023-01-09T04:30:27.974Z,28.45
2023-01-09T04:31:24.679Z,31.98
2023-01-09T04:32:21.419Z,28.63
2023-01-09T04:33:18.057Z,30.17
2023-01-09T04:34:14.709Z,29.33
2023-01-09T04:35:11.399Z,28.70
2023-01-09T04:36:08.396Z,28.73
2023-01-09T04:37:05.041Z,28.42
2023-01-09T04:38:01.614Z,25.75
2023-01-09T04:38:58.239Z,28.60
2023-01-09T04:39:57.727Z,27.33
2023-01-09T04:40:54.582Z,27.58
2023-01-09T04:41:51.385Z,29.05
2023-01-09T04:42:48.014Z,29.23
2023-01-09T04:43:44.827Z,27.88
2023-01-09T04:44:41.548Z,25.45
2023-01-09T04:45:38.252Z,28.20
2023-01-09T04:46:34.889Z,23.77
2023-01-09T04:47:31.743Z,25.05
2023-01-09T04:48:28.469Z,22.85
2023-01-09T04:49:25.944Z,23.65
2023-01-09T04:50:22.748Z,24.55
2023-01-09T04:51:19.494Z,22.35
2023-01-09T04:52:16.155Z,23.08
2023-01-09T04:53:12.825Z,22.02
2023-01-09T04:54:10.063Z,20.65
2023-01-09T04:55:08.262Z,24.38
2023-01-09T04:56:05.248Z,22.17
2023-01-09T04:57:01.962Z,22.58
2023-01-09T04:57:58.686Z,22.63
2023-01-09T04:58:55.514Z,23.95
2023-01-09T04:59:52.858Z,23.85
2023-01-09T05:00:50.201Z,22.60
2023-01-09T05:01:47.303Z,23.02
2023-01-09T05:02:44.090Z,21.77
2023-01-09T05:03:40.789Z,23.48
2023-01-09T05:04:37.601Z,23.63
2023-01-09T05:05:34.279Z,25.58
2023-01-09T05:06:31.528Z,27.73
2023-01-09T05:07:28.281Z,20.98
2023-01-09T05:08:24.865Z,23.90
2023-01-09T05:09:22.358Z,25.02
2023-01-09T05:10:19.012Z,30.20
2023-01-09T05:11:15.956Z,24.95
2023-01-09T05:12:12.618Z,23.40
2023-01-09T05:13:09.329Z,24.95
2023-01-09T05:14:05.922Z,27.52
2023-01-09T05:15:04.334Z,26.15
2023-01-09T05:16:01.023Z,24.92
2023-01-09T05:16:57.627Z,27.50
2023-01-09T05:17:54.441Z,26.83
2023-01-09T05:18:56.509Z,24.15
2023-01-09T05:19:53.345Z,22.35
2023-01-09T05:20:50.013Z,23.77
2023-01-09T05:21:46.634Z,22.88
2023-01-09T05:22:43.193Z,28.60
2023-01-09T05:23:39.969Z,27.52
2023-01-09T05:24:36.651Z,25.35
2023-01-09T05:25:33.299Z,35.15
2023-01-09T05:26:30.036Z,27.35
2023-01-09T05:27:27.376Z,31.60
2023-01-09T05:28:24.105Z,27.35
2023-01-09T05:29:20.843Z,26.83
2023-01-09T05:30:18.444Z,26.52
2023-01-09T05:31:15.196Z,36.80
2023-01-09T05:32:11.936Z,24.67
2023-01-09T05:33:08.835Z,25.08
2023-01-09T05:34:05.505Z,26.77
2023-01-09T05:35:02.175Z,32.05
2023-01-09T05:35:58.828Z,28.20
2023-01-09T05:36:55.479Z,30.83
2023-01-09T05:37:52.153Z,28.50
2023-01-09T05:38:48.854Z,28.42
2023-01-09T05:39:45.492Z,30.25
2023-01-09T05:40:42.150Z,30.98
2023-01-09T05:41:38.975Z,26.48
2023-01-09T05:42:35.579Z,29.67
2023-01-09T05:43:32.334Z,31.52
2023-01-09T05:44:28.996Z,30.65
2023-01-09T05:45:27.253Z,28.10
2023-01-09T05:46:23.931Z,27.63
2023-01-09T05:47:20.666Z,27.58
2023-01-09T05:48:17.544Z,26.88
2023-01-09T05:49:14.236Z,28.83
2023-01-09T05:50:11.790Z,26.80
2023-01-09T05:51:08.532Z,26.38
2023-01-09T05:52:05.524Z,30.63
2023-01-09T05:53:02.252Z,28.85
2023-01-09T05:53:59.387Z,27.00
2023-01-09T05:54:57.256Z,28.08
2023-01-09T05:55:53.941Z,27.70
2023-01-09T05:56:50.568Z,25.08
2023-01-09T05:57:47.284Z,26.25
2023-01-09T05:58:44.019Z,26.98
2023-01-09T05:59:40.699Z,27.70
2023-01-09T06:00:37.415Z,25.92
2023-01-09T06:01:34.209Z,26.77
2023-01-09T06:02:31.145Z,26.52
2023-01-09T06:03:27.848Z,28.65
2023-01-09T06:04:24.821Z,26.60
2023-01-09T06:05:21.449Z,25.25
2023-01-09T06:06:18.095Z,25.30
2023-01-09T06:07:19.888Z,27.70
2023-01-09T06:08:17.955Z,25.85
2023-01-09T06:09:14.554Z,31.30
2023-01-09T06:10:13.128Z,30.00
2023-01-09T06:11:09.797Z,28.30
2023-01-09T06:12:06.802Z,32.70
2023-01-09T06:13:03.442Z,27.35
2023-01-09T06:14:00.170Z,30.67
2023-01-09T06:14:56.778Z,26.50
2023-01-09T06:15:53.589Z,27.85
2023-01-09T06:16:51.059Z,27.85
2023-01-09T06:17:47.753Z,29.95
2023-01-09T06:18:44.768Z,27.23
2023-01-09T06:19:41.417Z,25.92
2023-01-09T06:20:38.029Z,28.95
2023-01-09T06:21:34.662Z,34.58
2023-01-09T06:22:31.304Z,28.83
2023-01-09T06:23:27.953Z,30.33
2023-01-09T06:24:25.255Z,32.50
2023-01-09T06:25:22.140Z,27.55
2023-01-09T06:26:18.792Z,23.58
2023-01-09T06:27:15.399Z,31.75
2023-01-09T06:28:12.199Z,24.42
2023-01-09T06:29:08.997Z,30.70
2023-01-09T06:30:06.481Z,31.25
2023-01-09T06:31:03.329Z,31.63
2023-01-09T06:31:59.945Z,31.88
2023-01-09T06:32:56.691Z,29.08
2023-01-09T06:33:53.651Z,30.33
2023-01-09T06:34:50.254Z,33.17
2023-01-09T06:35:46.957Z,29.52
2023-01-09T06:36:43.601Z,28.80
2023-01-09T06:37:40.186Z,28.95
2023-01-09T06:38:36.853Z,25.63
2023-01-09T06:39:33.530Z,29.58
2023-01-09T06:40:30.124Z,24.45
2023-01-09T06:41:26.811Z,28.73
2023-01-09T06:42:23.398Z,28.15
2023-01-09T06:43:19.981Z,30.50
2023-01-09T06:44:16.678Z,24.45
2023-01-09T06:45:14.048Z,26.15
2023-01-09T06:46:10.658Z,22.70
2023-01-09T06:47:07.288Z,27.63
2023-01-09T06:48:03.970Z,25.70
2023-01-09T06:49:00.704Z,22.73
2023-01-09T06:49:58.255Z,21.98
2023-01-09T06:50:55.198Z,26.58
2023-01-09T06:51:52.219Z,23.40
2023-01-09T06:52:48.788Z,23.05
2023-01-09T06:53:45.427Z,28.42
2023-01-09T06:54:42.123Z,28.38
2023-01-09T06:55:38.802Z,26.98
2023-01-09T06:56:35.433Z,25.40
2023-01-09T06:57:32.100Z,24.13
2023-01-09T06:58:29.245Z,28.02
2023-01-09T06:59:26.329Z,30.88
2023-01-09T07:00:23.051Z,28.00
2023-01-09T07:01:19.727Z,30.38
2023-01-09T07:02:21.027Z,26.20
2023-01-09T07:03:19.953Z,30.23
2023-01-09T07:04:17.942Z,28.77
2023-01-09T07:05:14.672Z,28.88
2023-01-09T07:06:11.371Z,28.63
2023-01-09T07:07:08.001Z,30.23
2023-01-09T07:08:04.782Z,32.00
2023-01-09T07:09:01.547Z,28.63
2023-01-09T07:09:58.198Z,23.85
2023-01-09T07:10:54.856Z,30.70
2023-01-09T07:11:51.487Z,25.55
2023-01-09T07:12:48.136Z,27.65
2023-01-09T07:13:44.787Z,28.70
2023-01-09T07:14:41.733Z,27.00
2023-01-09T07:15:38.462Z,25.13
2023-01-09T07:16:35.189Z,25.10
2023-01-09T07:17:32.790Z,27.90
2023-01-09T07:18:29.433Z,28.23
2023-01-09T07:19:26.172Z,28.25
2023-01-09T07:20:22.808Z,28.85
2023-01-09T07:21:19.457Z,28.05
2023-01-09T07:22:16.314Z,23.55
2023-01-09T07:23:13.311Z,30.67
2023-01-09T07:24:09.944Z,29.23
2023-01-09T07:25:06.747Z,25.05
2023-01-09T07:26:03.787Z,25.92
2023-01-09T07:27:00.402Z,27.15
2023-01-09T07:27:57.004Z,25.48
2023-01-09T07:28:54.614Z,27.75
2023-01-09T07:29:53.438Z,28.67
2023-01-09T07:30:50.137Z,29.23
2023-01-09T07:31:47.018Z,30.85
2023-01-09T07:32:43.730Z,30.30
2023-01-09T07:33:40.493Z,24.33
2023-01-09T07:34:37.190Z,26.67
2023-01-09T07:35:34.174Z,25.20
2023-01-09T07:36:30.880Z,23.73
2023-01-09T07:37:27.472Z,28.88
2023-01-09T07:38:24.058Z,28.58
2023-01-09T07:39:20.805Z,23.70
2023-01-09T07:40:17.604Z,25.15
2023-01-09T07:41:14.265Z,21.73
2023-01-09T07:42:11.544Z,27.48
2023-01-09T07:43:08.144Z,26.95
2023-01-09T07:44:05.126Z,26.75
2023-01-09T07:45:01.820Z,25.17
2023-01-09T07:45:58.428Z,26.00
2023-01-09T07:46:55.060Z,23.95
2023-01-09T07:47:52.396Z,23.38
2023-01-09T07:48:48.980Z,22.75
2023-01-09T07:49:45.595Z,22.98
2023-01-09T07:50:42.251Z,25.63
2023-01-09T07:51:43.076Z,22.25
2023-01-09T07:52:39.728Z,24.77
2023-01-09T07:53:36.447Z,27.35
2023-01-09T07:54:33.099Z,26.88
2023-01-09T07:55:29.829Z,24.00
2023-01-09T07:56:26.544Z,26.73
2023-01-09T07:57:23.118Z,21.00
2023-01-09T07:58:19.762Z,26.17
2023-01-09T07:59:16.433Z,25.40
2023-01-09T08:00:13.523Z,25.52
2023-01-09T08:01:10.262Z,26.70
2023-01-09T08:02:07.377Z,24.75
2023-01-09T08:03:04.938Z,24.33
2023-01-09T08:04:01.526Z,20.05
2023-01-09T08:04:58.291Z,25.92
2023-01-09T08:05:55.063Z,22.88
2023-01-09T08:06:51.680Z,21.67
2023-01-09T08:07:50.679Z,21.10
2023-01-09T08:08:47.341Z,25.15
2023-01-09T08:09:43.900Z,26.48
2023-01-09T08:10:40.792Z,23.42
2023-01-09T08:11:37.427Z,23.35
2023-01-09T08:12:34.061Z,21.95
2023-01-09T08:13:30.768Z,21.13
2023-01-09T08:14:27.493Z,22.27
2023-01-09T08:15:24.228Z,20.98
2023-01-09T08:16:20.994Z,21.63
2023-01-09T08:17:18.352Z,20.23
2023-01-09T08:18:15.112Z,22.73
2023-01-09T08:19:12.334Z,20.17
2023-01-09T08:20:11.942Z,22.40
2023-01-09T08:21:08.624Z,21.30
2023-01-09T08:22:05.238Z,20.00
2023-01-09T08:23:01.921Z,16.33
2023-01-09T08:23:58.838Z,21.20
2023-01-09T08:24:55.893Z,19.73
2023-01-09T08:25:53.573Z,20.88
2023-01-09T08:26:50.105Z,19.33
2023-01-09T08:27:47.250Z,18.98
2023-01-09T08:28:43.994Z,20.55
2023-01-09T08:29:40.651Z,19.17
2023-01-09T08:30:37.221Z,17.05
2023-01-09T08:31:33.851Z,18.50
2023-01-09T08:32:30.466Z,18.95
2023-01-09T08:33:27.418Z,18.20
2023-01-09T08:34:24.075Z,18.13
2023-01-09T08:35:20.882Z,17.98
2023-01-09T08:36:17.542Z,17.85
2023-01-09T08:37:14.145Z,17.10
2023-01-09T08:38:11.202Z,16.00
2023-01-09T08:39:09.054Z,17.75
2023-01-09T08:40:06.148Z,16.42
2023-01-09T08:41:22.725Z,14.48
2023-01-09T08:42:38.737Z,16.55
2023-01-09T08:43:57.021Z,15.40
2023-01-09T08:45:11.950Z,17.50
2023-01-09T08:46:39.801Z,17.10
2023-01-09T08:47:36.766Z,16.15
2023-01-09T08:48:33.446Z,17.75
2023-01-09T08:49:30.071Z,15.10
2023-01-09T08:50:27.346Z,15.63
2023-01-09T08:51:23.948Z,14.18
2023-01-09T08:52:20.574Z,16.92
2023-01-09T08:53:17.198Z,15.98
2023-01-09T08:54:14.031Z,13.98
2023-01-09T08:55:10.742Z,15.23
2023-01-09T08:56:07.724Z,14.70
2023-01-09T08:57:04.570Z,13.07
2023-01-09T08:58:01.695Z,14.93
2023-01-09T08:58:58.410Z,16.25
2023-01-09T08:59:55.074Z,15.73
2023-01-09T09:00:51.891Z,15.20
2023-01-09T09:01:48.604Z,13.60
2023-01-09T09:02:45.457Z,14.38
2023-01-09T09:03:42.119Z,12.52
2023-01-09T09:04:38.796Z,15.70
2023-01-09T09:05:35.472Z,14.60
2023-01-09T09:06:33.313Z,14.77
2023-01-09T09:07:29.986Z,15.15
2023-01-09T09:08:26.605Z,14.43
2023-01-09T09:09:23.331Z,15.10
2023-01-09T09:10:20.758Z,14.35
2023-01-09T09:11:17.348Z,13.48
2023-01-09T09:12:14.048Z,12.82
2023-01-09T09:13:10.728Z,12.48
2023-01-09T09:14:25.807Z,14.98
2023-01-09T09:15:26.658Z,14.40
2023-01-09T09:16:24.767Z,13.75
2023-01-09T09:17:22.669Z,12.48
2023-01-09T09:18:19.323Z,12.18
2023-01-09T09:19:15.947Z,11.52
2023-01-09T09:20:12.626Z,13.15
2023-01-09T09:21:11.559Z,13.77
2023-01-09T09:22:08.424Z,14.60
2023-01-09T09:23:06.622Z,11.75
2023-01-09T09:24:03.242Z,13.02
2023-01-09T09:24:59.880Z,10.95
2023-01-09T09:25:56.513Z,14.27
2023-01-09T09:26:53.276Z,13.68
2023-01-09T09:27:50.360Z,11.93
2023-01-09T09:28:47.302Z,13.18
2023-01-09T09:29:43.925Z,14.13
2023-01-09T09:30:40.515Z,15.00
2023-01-09T09:31:38.714Z,12.63
2023-01-09T09:32:35.902Z,13.55
2023-01-09T09:33:32.686Z,13.98
2023-01-09T09:34:29.532Z,14.68
2023-01-09T09:35:26.209Z,13.02
2023-01-09T09:36:22.897Z,12.40
2023-01-09T09:37:19.579Z,14.65
2023-01-09T09:38:16.291Z,13.75
2023-01-09T09:39:12.974Z,15.45
2023-01-09T09:40:24.121Z,13.02
2023-01-09T09:42:10.560Z,13.90
2023-01-09T09:43:42.601Z,13.48
2023-01-09T09:44:53.764Z,13.43
2023-01-09T09:46:20.558Z,11.52
2023-01-09T09:47:43.588Z,16.00
2023-01-09T09:48:50.185Z,13.38
2023-01-09T09:50:24.323Z,13.43
2023-01-09T09:51:26.855Z,12.10
2023-01-09T09:54:40.801Z,13.63
2023-01-09T09:55:40.525Z,14.35
2023-01-09T09:56:46.030Z,15.35
2023-01-09T09:57:43.958Z,14.07
2023-01-09T09:58:43.888Z,14.98
2023-01-09T09:59:42.149Z,14.05
2023-01-09T10:00:39.350Z,14.23
2023-01-09T10:01:53.241Z,13.20
2023-01-09T10:02:56.982Z,15.65
2023-01-09T10:03:58.778Z,12.27
2023-01-09T10:05:01.980Z,12.70
2023-01-09T10:06:02.780Z,13.13
2023-01-09T10:07:20.534Z,14.80
2023-01-09T10:08:38.188Z,14.07
2023-01-09T10:09:49.728Z,13.65
2023-01-09T10:10:56.209Z,11.93
2023-01-09T10:12:08.265Z,12.13
2023-01-09T10:13:23.760Z,14.30
2023-01-09T10:14:24.180Z,12.93
2023-01-09T10:15:30.862Z,11.32
2023-01-09T10:16:45.984Z,13.32
2023-01-09T10:18:09.365Z,11.35
2023-01-09T10:19:20.848Z,13.30
2023-01-09T10:20:17.443Z,12.45
2023-01-09T10:21:23.340Z,13.15
2023-01-09T10:22:47.910Z,12.00
2023-01-09T10:24:01.618Z,9.48
2023-01-09T10:25:19.525Z,11.63
2023-01-09T10:26:16.132Z,12.45
2023-01-09T10:27:28.037Z,13.80
2023-01-09T10:28:46.212Z,11.07
2023-01-09T10:30:21.586Z,10.40
2023-01-09T10:31:24.033Z,10.20
2023-01-09T10:33:59.073Z,11.45
2023-01-09T10:35:19.325Z,12.50
2023-01-09T10:36:28.785Z,14.05
2023-01-09T10:37:34.208Z,12.40
2023-01-09T10:38:37.949Z,11.25
2023-01-09T10:39:40.401Z,12.05
2023-01-09T10:41:39.894Z,12.68
2023-01-09T10:42:50.660Z,12.15
2023-01-09T10:44:06.004Z,10.23
2023-01-09T10:45:10.895Z,10.93
2023-01-09T10:46:16.456Z,11.63
2023-01-09T10:47:21.560Z,10.45
2023-01-09T10:48:29.861Z,10.38
2023-01-09T10:49:27.469Z,10.25
2023-01-09T10:50:31.114Z,10.27
2023-01-09T10:51:36.206Z,10.52
2023-01-09T10:52:41.723Z,9.82
2023-01-09T10:53:43.426Z,10.10
2023-01-09T10:54:47.335Z,9.75
2023-01-09T10:55:47.844Z,9.45
2023-01-09T10:57:10.805Z,9.38
2023-01-09T10:58:16.164Z,9.90
2023-01-09T10:59:12.906Z,9.73
2023-01-09T11:00:23.634Z,10.90
2023-01-09T11:01:33.605Z,11.30
2023-01-09T11:02:34.181Z,9.60
2023-01-09T11:03:30.939Z,10.30
2023-01-09T11:04:36.551Z,8.35
2023-01-09T11:05:34.125Z,9.80
2023-01-09T11:06:59.911Z,9.52
2023-01-09T11:08:23.097Z,9.60
2023-01-09T11:09:19.780Z,9.95
2023-01-09T11:10:17.478Z,9.98
2023-01-09T11:11:33.140Z,9.02
2023-01-09T11:12:34.564Z,10.85
2023-01-09T11:13:33.306Z,10.18
2023-01-09T11:14:32.563Z,8.65
2023-01-09T11:15:29.310Z,11.52
2023-01-09T11:16:26.023Z,9.27
2023-01-09T11:17:27.144Z,8.65
2023-01-09T11:18:25.035Z,9.48
2023-01-09T11:19:22.807Z,9.63
2023-01-09T11:20:22.421Z,10.07
2023-01-09T11:21:32.950Z,9.60
2023-01-09T11:22:29.633Z,8.98
2023-01-09T11:23:29.306Z,11.07
2023-01-09T11:24:28.941Z,9.73
2023-01-09T11:25:28.125Z,8.50
2023-01-09T11:26:27.314Z,7.85
2023-01-09T11:27:24.937Z,8.75
2023-01-09T11:28:21.637Z,9.75
2023-01-09T11:29:20.695Z,8.43
2023-01-09T11:30:20.498Z,9.98
2023-01-09T11:31:24.593Z,8.52
2023-01-09T11:32:23.937Z,7.93
2023-01-09T11:33:24.644Z,8.35
2023-01-09T11:34:24.327Z,8.50
2023-01-09T11:35:24.596Z,9.38
2023-01-09T11:36:27.623Z,8.18
2023-01-09T11:37:28.386Z,9.07
2023-01-09T11:38:25.507Z,9.15
2023-01-09T11:39:25.717Z,7.53
2023-01-09T11:40:22.569Z,8.02
2023-01-09T11:41:22.638Z,8.43
2023-01-09T11:42:42.203Z,10.10
2023-01-09T11:43:40.436Z,10.95
2023-01-09T11:44:37.172Z,9.60
2023-01-09T11:45:36.104Z,10.02
2023-01-09T11:46:39.526Z,8.55
2023-01-09T11:47:39.720Z,11.13
2023-01-09T11:48:58.038Z,8.82
2023-01-09T11:50:18.009Z,10.05
2023-01-09T11:51:22.097Z,7.93
2023-01-09T11:52:21.028Z,10.95
2023-01-09T11:53:19.759Z,9.23
2023-01-09T11:54:25.387Z,9.95
2023-01-09T11:55:25.364Z,8.52
2023-01-09T11:56:24.233Z,9.77
2023-01-09T11:57:23.696Z,9.32
2023-01-09T11:58:21.914Z,10.95
2023-01-09T11:59:21.639Z,9.35
2023-01-09T12:00:39.722Z,10.90
2023-01-09T12:01:54.932Z,8.13
2023-01-09T12:03:02.386Z,8.43
2023-01-09T12:04:12.303Z,11.45
2023-01-09T12:05:17.763Z,9.73
2023-01-09T12:06:33.262Z,9.48
2023-01-09T12:07:36.090Z,9.75
2023-01-09T12:08:55.879Z,9.40
2023-01-09T12:10:32.867Z,9.07
2023-01-09T12:11:44.548Z,9.00
2023-01-09T12:13:11.460Z,8.07
2023-01-09T12:14:32.811Z,9.70
2023-01-09T12:16:11.008Z,8.50
2023-01-09T12:17:23.037Z,7.30
2023-01-09T12:18:51.435Z,10.20
2023-01-09T12:19:57.518Z,8.75
2023-01-09T12:21:06.097Z,9.50
2023-01-09T12:22:15.984Z,8.70
2023-01-09T12:23:31.066Z,10.15
2023-01-09T12:24:36.757Z,10.43
2023-01-09T12:26:02.766Z,8.43
2023-01-09T12:27:28.471Z,10.65
2023-01-09T12:28:31.154Z,9.15
2023-01-09T12:30:00.159Z,9.23
2023-01-09T12:31:27.629Z,7.22
2023-01-09T12:32:39.303Z,9.70
2023-01-09T12:34:01.391Z,10.68
2023-01-09T12:35:36.713Z,10.13
2023-01-09T12:36:49.865Z,9.73
2023-01-09T12:39:27.722Z,9.60
2023-01-09T12:40:39.278Z,10.02
2023-01-09T12:41:57.197Z,8.90
2023-01-09T12:42:53.769Z,9.93
2023-01-09T12:44:08.812Z,9.02
2023-01-09T12:45:24.053Z,10.98
2023-01-09T12:46:26.870Z,10.00
2023-01-09T12:47:32.651Z,10.63
2023-01-09T12:48:53.335Z,8.27
2023-01-09T12:49:54.439Z,10.43
2023-01-09T12:51:07.067Z,9.70
2023-01-09T12:52:17.610Z,9.10
2023-01-09T12:53:14.177Z,9.60
2023-01-09T12:54:38.355Z,8.95
2023-01-09T12:55:39.150Z,9.93
2023-01-09T12:56:41.015Z,10.55
2023-01-09T12:57:42.640Z,10.73
2023-01-09T12:58:52.759Z,10.63
2023-01-09T13:00:15.210Z,10.77
2023-01-09T13:01:21.617Z,10.80
2023-01-09T13:02:27.728Z,9.50
2023-01-09T13:03:36.589Z,11.27
2023-01-09T13:04:40.312Z,7.60
2023-01-09T13:05:45.885Z,9.65
2023-01-09T13:06:51.117Z,9.35
2023-01-09T13:08:07.925Z,7.65
2023-01-09T13:09:13.143Z,11.98
2023-01-09T13:10:22.485Z,8.80
2023-01-09T13:11:28.389Z,9.02
2023-01-09T13:12:27.721Z,9.13
2023-01-09T13:13:48.286Z,9.88
2023-01-09T13:14:48.097Z,11.18
2023-01-09T13:15:51.022Z,10.75
2023-01-09T13:16:52.513Z,8.63
2023-01-09T13:17:57.733Z,10.10
2023-01-09T13:19:26.899Z,11.15
2023-01-09T13:20:34.087Z,10.07
2023-01-09T13:21:31.635Z,8.63